weather.gov     
National Weather Service

Terminal Aerodrome Forecast
NWS Homepage
This page is being discontinued on March 12, 2014.
The same data is available at this site. Please update your bookmarks.
Thank you, and we apologize for the inconvenience.
Please send an email to SR-SRH.Webmaster@noaa.gov with any concerns.


Current Version
Previous Version:    01  02  03  04  05  06  07  08  09  10  11  12  13  14  15  16  17  18  19  20  21  22  23  24  25  26  27  28  29  30  
   31  32  33  34  35  
[Printable]
306
FTUS44 KCRP 011100
TAFALI
TAF
KALI 011140Z 0112/0212 VRB04KT 6SM BR BKN015 OVC100
     FM011500 17005KT P6SM VCSH BKN035 OVC100
      TEMPO 0115/0117 6SM SHRA BR BKN030
     FM012000 12012KT P6SM VCTS BKN040CB BKN100
      TEMPO 0120/0124 TSRA BKN035CB
     FM020300 11008KT P6SM SCT060 BKN100
     FM020900 VRB05KT P6SM VCSH SCT030=


U.S. Dept. of Commerce
NOAA National Weather Service
1325 East West Highway
Silver Spring, MD 20910
E-mail: w-nws.webmaster@noaa.gov
Page last modified: May 16, 2007
NATIONAL WEATHER SERVICE: for Safety, for Work, for Fun - FOR LIFE